Archival Weather

Rochelle Muni/Koritz Fld

Rochelle, Illinois (KRPJ)

Report from: Sunday, February 5, 2023 7:35 PM CST
Current time: Tuesday, February 27, 2024 3:46 AM CST

Current weather – Weather history – Daily summaries
Weather forecast

Temperature-2.7°C (27.1°F)
Wind chill-6.8°C (19.7°F)
Dew point-3.7°C (25.3°F)
Winds 6 kts (3.1 m/s, 6.9 mph) West-Northwest (290°)
Visibility10 mi. (16.1 km)
Clouds Sky clear
Altimeter30.12 in.Hg (1020 mB)
Relative humidity93 %
Density altitude-2,334 ft. (-711 m)
Remarks Fully automated report
Automated weather observing station with precipitation discriminator
Lightning detection system not operating
Flight conditions Visual Meteorological Conditions
Raw dataKRPJ 060135Z AUTO 29006KT 10SM CLR M03/M04 A3012 RMK AO2 T10271037 TSNO
An error has occurred. This application may no longer respond until reloaded. Reload 🗙